Time;durP1;ratioP1;P1;durP2;ratioP2;P2;SDS_P1;SDS_P2;PMS_P1;PMS_P2;Temp;Humidity;BMP_temperature;BMP_pressure;BME280_temperature;BME280_humidity;BME280_pressure;Samples;Min_cycle;Max_cycle;Signal;HPM_P1;HPM_P2
2021/03/19 00:01:39;;;;;;;7.53;6.00;;;3.00;99.90;;;;;;5019008;28;20152;-69
2021/03/19 00:04:06;;;;;;;9.02;6.18;;;2.90;99.90;;;;;;5007417;28;20026;-66
2021/03/19 00:06:32;;;;;;;6.78;5.97;;;2.80;99.90;;;;;;5016348;28;20033;-67
2021/03/19 00:08:58;;;;;;;7.90;5.40;;;2.70;99.90;;;;;;5015226;28;20505;-68
2021/03/19 00:11:23;;;;;;;6.55;5.95;;;2.70;99.90;;;;;;5014896;28;20033;-67
2021/03/19 00:13:49;;;;;;;6.88;6.18;;;2.60;99.90;;;;;;5040922;28;20036;-68
2021/03/19 00:16:15;;;;;;;7.38;5.72;;;2.60;99.90;;;;;;5025307;28;20026;-66
2021/03/19 00:18:41;;;;;;;8.98;6.13;;;2.60;99.90;;;;;;5026735;28;20025;-67
2021/03/19 00:21:07;;;;;;;7.70;7.00;;;2.50;99.90;;;;;;5020763;28;20030;-68
2021/03/19 00:23:32;;;;;;;7.55;6.30;;;2.60;99.90;;;;;;5013258;28;20304;-68
2021/03/19 00:25:58;;;;;;;6.95;6.25;;;2.70;99.90;;;;;;5014218;28;20029;-68
2021/03/19 00:28:23;;;;;;;8.23;7.40;;;2.70;99.90;;;;;;5006897;28;20030;-67
2021/03/19 00:30:49;;;;;;;6.85;6.15;;;2.80;99.90;;;;;;5010783;28;20477;-69
2021/03/19 00:33:16;;;;;;;8.38;7.00;;;2.80;99.90;;;;;;5002116;28;20026;-67
2021/03/19 00:35:42;;;;;;;9.45;7.70;;;2.80;99.90;;;;;;5014457;28;20136;-67
2021/03/19 00:38:09;;;;;;;7.22;6.53;;;2.80;99.90;;;;;;5013850;28;20018;-66
2021/03/19 00:40:37;;;;;;;9.02;8.02;;;2.80;99.90;;;;;;5030449;28;20021;-68
2021/03/19 00:43:07;;;;;;;10.82;7.20;;;2.80;99.90;;;;;;5030709;28;20556;-68
2021/03/19 00:45:33;;;;;;;11.05;7.32;;;2.70;99.90;;;;;;5011419;28;20032;-69
2021/03/19 00:47:59;;;;;;;10.60;7.10;;;2.80;99.90;;;;;;5012123;28;20065;-68
2021/03/19 00:50:38;;;;;;;9.43;6.70;;;2.80;99.90;;;;;;5013575;28;20457;-67
2021/03/19 00:53:04;;;;;;;8.02;7.22;;;2.80;99.90;;;;;;5013624;28;20121;-67
2021/03/19 00:55:31;;;;;;;11.45;7.75;;;2.80;99.90;;;;;;5013416;28;20049;-68
2021/03/19 00:57:57;;;;;;;8.38;7.50;;;2.80;99.90;;;;;;5016573;28;20037;-68
2021/03/19 01:00:24;;;;;;;8.43;7.00;;;2.80;99.90;;;;;;5017729;28;20081;-67
2021/03/19 01:02:50;;;;;;;9.43;7.25;;;2.80;99.90;;;;;;5009882;28;20049;-68
2021/03/19 01:05:22;;;;;;;8.82;7.38;;;2.80;99.90;;;;;;5019439;28;20030;-67
2021/03/19 01:07:48;;;;;;;8.23;7.35;;;2.80;99.90;;;;;;5006419;28;20089;-69
2021/03/19 01:10:21;;;;;;;9.43;7.43;;;2.80;99.90;;;;;;5014163;28;20026;-67
2021/03/19 01:12:48;;;;;;;9.82;8.05;;;2.70;99.90;;;;;;5013713;28;20029;-68
2021/03/19 01:15:14;;;;;;;10.50;7.45;;;2.60;99.90;;;;;;5014009;28;20021;-67
2021/03/19 01:17:39;;;;;;;11.32;8.52;;;2.60;99.90;;;;;;4987664;28;20022;-67
2021/03/19 01:20:10;;;;;;;11.50;7.97;;;2.60;99.90;;;;;;5011678;28;20386;-67
2021/03/19 01:22:36;;;;;;;;;;;2.60;1.00;;;;;;5015591;28;20022;-68
2021/03/19 01:25:05;;;;;;;8.65;7.80;;;2.60;99.90;;;;;;5019618;28;20341;-68
2021/03/19 01:27:31;;;;;;;8.85;7.95;;;2.60;1.00;;;;;;5012621;28;20053;-67
2021/03/19 01:29:56;;;;;;;10.60;7.65;;;2.60;99.90;;;;;;5005566;28;20490;-68
2021/03/19 01:32:22;;;;;;;10.27;7.97;;;2.50;99.90;;;;;;5003149;28;20026;-67
2021/03/19 01:34:48;;;;;;;10.63;7.75;;;2.60;99.90;;;;;;5012738;28;20041;-67
2021/03/19 01:37:13;;;;;;;9.40;8.50;;;2.60;99.90;;;;;;5004744;28;20498;-67
2021/03/19 01:39:39;;;;;;;9.88;8.65;;;2.60;99.90;;;;;;5012852;28;20038;-67
2021/03/19 01:42:06;;;;;;;7.93;7.13;;;2.60;1.00;;;;;;5005171;28;20056;-68
2021/03/19 01:45:07;;;;;;;9.07;8.18;;;2.60;1.00;;;;;;5013002;28;20544;-67
2021/03/19 01:48:10;;;;;;;10.05;9.10;;;2.60;99.90;;;;;;5003333;28;20060;-67
2021/03/19 01:51:13;;;;;;;13.00;9.57;;;2.60;1.00;;;;;;4995262;28;20490;-68
2021/03/19 01:54:16;;;;;;;12.43;8.80;;;2.50;1.00;;;;;;5005900;28;20032;-69
2021/03/19 01:57:19;;;;;;;11.35;9.82;;;2.40;1.00;;;;;;4995442;28;20022;-68
2021/03/19 02:00:22;;;;;;;14.63;10.15;;;2.30;1.00;;;;;;5010474;28;20030;-67
2021/03/19 02:03:25;;;;;;;12.43;10.90;;;2.30;1.00;;;;;;5017333;28;20045;-68
2021/03/19 02:06:28;;;;;;;12.80;10.52;;;2.30;1.00;;;;;;4992983;28;20033;-68
2021/03/19 02:09:31;;;;;;;15.25;11.90;;;2.30;1.00;;;;;;5006261;28;20022;-68
2021/03/19 02:12:34;;;;;;;15.73;11.23;;;2.20;1.00;;;;;;5017702;28;20026;-68
2021/03/19 02:15:37;;;;;;;13.13;11.43;;;2.20;1.00;;;;;;5006018;28;20491;-68
2021/03/19 02:18:40;;;;;;;15.70;12.13;;;2.20;1.00;;;;;;5022063;28;20054;-67
2021/03/19 02:21:43;;;;;;;15.73;11.68;;;2.20;1.00;;;;;;5001659;28;20061;-67
2021/03/19 02:24:46;;;;;;;13.10;11.65;;;2.10;1.00;;;;;;5021569;28;20053;-68
2021/03/19 02:27:49;;;;;;;13.55;10.52;;;2.10;1.00;;;;;;5021569;28;20452;-68
2021/03/19 02:30:52;;;;;;;13.07;10.60;;;2.40;1.00;;;;;;5005637;28;20039;-67
2021/03/19 02:33:18;;;;;;;11.52;10.25;;;2.60;1.00;;;;;;5010569;28;20026;-67
2021/03/19 02:35:56;;;;;;;13.73;10.52;;;2.70;1.00;;;;;;5004344;28;20048;-69
2021/03/19 02:38:23;;;;;;;15.50;10.63;;;2.80;99.90;;;;;;5010642;28;20561;-68
2021/03/19 02:40:48;;;;;;;10.45;9.43;;;2.90;99.90;;;;;;5016701;28;20026;-67
2021/03/19 02:43:15;;;;;;;11.60;10.32;;;2.90;99.90;;;;;;5010343;28;20104;-68
2021/03/19 02:45:41;;;;;;;17.95;12.90;;;2.90;99.90;;;;;;5003173;28;20065;-68
2021/03/19 02:48:08;;;;;;;11.38;9.82;;;2.90;99.90;;;;;;5015528;28;20406;-68
2021/03/19 02:50:34;;;;;;;13.35;10.02;;;2.90;99.90;;;;;;5015830;28;20025;-69
2021/03/19 02:52:59;;;;;;;14.35;10.52;;;2.80;99.90;;;;;;5008921;28;20548;-67
2021/03/19 02:55:25;;;;;;;13.63;10.73;;;2.60;99.90;;;;;;5021500;28;20037;-68
2021/03/19 02:57:50;;;;;;;12.77;11.43;;;2.50;1.00;;;;;;5016099;28;20386;-68
2021/03/19 03:00:22;;;;;;;11.55;10.07;;;2.50;1.00;;;;;;5028935;28;20401;-69
2021/03/19 03:02:48;;;;;;;11.95;10.60;;;2.40;1.00;;;;;;5015672;28;20028;-68
2021/03/19 03:05:14;;;;;;;13.48;10.93;;;2.40;1.00;;;;;;5025337;28;20045;-68
2021/03/19 03:07:40;;;;;;;14.32;11.93;;;2.40;1.00;;;;;;5010566;28;20084;-68
2021/03/19 03:10:08;;;;;;;14.40;11.30;;;2.30;1.00;;;;;;5013009;28;20026;-68
2021/03/19 03:12:33;;;;;;;13.15;11.43;;;2.40;1.00;;;;;;5031638;28;20478;-67
2021/03/19 03:14:59;;;;;;;13.88;10.20;;;2.30;99.90;;;;;;5017059;28;20033;-66
2021/03/19 03:17:25;;;;;;;11.57;9.80;;;2.30;1.00;;;;;;5018254;28;20045;-68
2021/03/19 03:19:51;;;;;;;11.52;9.90;;;2.30;1.00;;;;;;5014470;28;20034;-69
2021/03/19 03:22:17;;;;;;;11.90;9.80;;;2.30;99.90;;;;;;5016150;28;20096;-68
2021/03/19 03:24:42;;;;;;;16.92;10.82;;;2.40;1.00;;;;;;5017229;28;20038;-67
2021/03/19 03:27:08;;;;;;;12.68;11.15;;;2.40;99.90;;;;;;5021178;28;20029;-68
2021/03/19 03:29:36;;;;;;;16.33;10.60;;;2.60;99.90;;;;;;5013769;28;20109;-66
2021/03/19 03:32:03;;;;;;;12.85;10.32;;;2.80;99.90;;;;;;5016420;28;20395;-66
2021/03/19 03:34:29;;;;;;;16.27;11.40;;;2.80;99.90;;;;;;5014640;28;20485;-68
2021/03/19 03:36:55;;;;;;;14.70;11.35;;;2.80;99.90;;;;;;5009909;28;20480;-66
2021/03/19 03:39:24;;;;;;;19.35;12.40;;;2.90;99.90;;;;;;5017155;28;20104;-67
2021/03/19 03:41:50;;;;;;;12.73;10.88;;;2.90;99.90;;;;;;5008631;28;20026;-67
2021/03/19 03:44:17;;;;;;;11.35;10.27;;;2.80;99.90;;;;;;5015269;28;20402;-67
2021/03/19 03:46:45;;;;;;;12.43;11.23;;;2.80;99.90;;;;;;5008491;28;20068;-68
2021/03/19 03:49:12;;;;;;;13.93;10.52;;;2.80;99.90;;;;;;5014809;28;20030;-67
2021/03/19 03:51:38;;;;;;;13.40;10.27;;;2.90;99.90;;;;;;5018721;28;20036;-67
2021/03/19 03:54:04;;;;;;;13.70;9.85;;;2.90;99.90;;;;;;5015914;28;20108;-67
2021/03/19 03:56:30;;;;;;;11.80;10.10;;;2.90;99.90;;;;;;5006471;28;20156;-67
2021/03/19 03:58:56;;;;;;;13.75;9.70;;;2.80;99.90;;;;;;5017845;28;20028;-66
2021/03/19 04:01:22;;;;;;;11.57;10.38;;;2.80;99.90;;;;;;5026169;28;20029;-69
2021/03/19 04:03:48;;;;;;;13.60;11.63;;;2.80;99.90;;;;;;5024201;28;20034;-67
2021/03/19 04:06:13;;;;;;;16.05;11.55;;;2.70;99.90;;;;;;5014888;28;20110;-67
2021/03/19 04:08:39;;;;;;;12.50;10.27;;;2.70;99.90;;;;;;5019053;28;20079;-68
2021/03/19 04:11:18;;;;;;;12.30;10.98;;;2.60;99.90;;;;;;5011790;28;20045;-68
2021/03/19 04:13:44;;;;;;;16.38;11.18;;;2.70;99.90;;;;;;5008789;28;20026;-68
2021/03/19 04:16:10;;;;;;;12.02;10.82;;;2.70;99.90;;;;;;5016181;28;20026;-67
2021/03/19 04:18:37;;;;;;;14.55;11.02;;;2.70;99.90;;;;;;5015924;28;20101;-68
2021/03/19 04:21:08;;;;;;;11.50;10.35;;;2.70;99.90;;;;;;5015852;28;20076;-67
2021/03/19 04:23:36;;;;;;;12.05;10.57;;;2.70;99.90;;;;;;5008167;28;20022;-66
2021/03/19 04:26:03;;;;;;;13.32;11.65;;;2.70;99.90;;;;;;5020514;28;20436;-67
2021/03/19 04:28:35;;;;;;;16.13;11.65;;;2.70;99.90;;;;;;5001226;28;20021;-68
2021/03/19 04:31:01;;;;;;;14.80;12.13;;;2.70;99.90;;;;;;5008017;28;20252;-67
2021/03/19 04:33:28;;;;;;;17.08;12.02;;;2.70;99.90;;;;;;5010002;28;20033;-67
2021/03/19 04:36:14;;;;;;;16.13;14.02;;;2.70;99.90;;;;;;5017473;28;20030;-67
2021/03/19 04:38:40;;;;;;;15.90;12.02;;;2.80;99.90;;;;;;5008318;28;20022;-67
2021/03/19 04:41:08;;;;;;;17.77;11.18;;;2.90;99.90;;;;;;5014396;28;20026;-68
2021/03/19 04:43:34;;;;;;;13.88;10.73;;;3.10;99.90;;;;;;5006048;28;20386;-67
2021/03/19 04:45:59;;;;;;;13.10;11.05;;;3.20;99.90;;;;;;5006433;28;20026;-67
2021/03/19 04:48:25;;;;;;;13.55;10.75;;;3.20;99.90;;;;;;5004858;28;20033;-68
2021/03/19 04:50:50;;;;;;;13.95;10.30;;;3.20;99.90;;;;;;5011762;28;20029;-67
2021/03/19 04:53:16;;;;;;;12.43;10.35;;;3.20;99.90;;;;;;5014764;28;20028;-68
2021/03/19 04:55:42;;;;;;;12.80;11.43;;;3.10;99.90;;;;;;5014390;28;20084;-67
2021/03/19 04:58:07;;;;;;;12.68;11.27;;;3.00;99.90;;;;;;5001376;28;20018;-67
2021/03/19 05:00:33;;;;;;;12.02;10.40;;;3.00;99.90;;;;;;5003596;28;20493;-68
2021/03/19 05:02:58;;;;;;;16.88;11.90;;;3.00;99.90;;;;;;5005714;28;20022;-67
2021/03/19 05:05:30;;;;;;;14.20;11.82;;;3.00;99.90;;;;;;4999980;28;20105;-67
2021/03/19 05:07:57;;;;;;;13.93;12.50;;;3.10;99.90;;;;;;5013432;28;20105;-67
2021/03/19 05:10:26;;;;;;;16.83;12.90;;;3.10;99.90;;;;;;5026386;28;20032;-66
2021/03/19 05:12:52;;;;;;;15.75;12.32;;;3.10;99.90;;;;;;5015624;28;20021;-67
2021/03/19 05:15:19;;;;;;;16.90;13.00;;;3.10;99.90;;;;;;5014749;28;20021;-65
2021/03/19 05:17:44;;;;;;;17.33;14.02;;;3.10;99.90;;;;;;5008501;28;20061;-67
2021/03/19 05:20:12;;;;;;;15.18;12.45;;;3.20;99.90;;;;;;5011294;28;20037;-68
2021/03/19 05:22:38;;;;;;;13.75;11.98;;;3.20;99.90;;;;;;5006281;28;20029;-67
2021/03/19 05:25:06;;;;;;;15.40;13.68;;;3.20;99.90;;;;;;5007001;28;20066;-67
2021/03/19 05:27:35;;;;;;;13.63;11.50;;;3.10;99.90;;;;;;5005851;28;20105;-67
2021/03/19 05:30:00;;;;;;;16.65;13.02;;;3.00;99.90;;;;;;5012805;28;20030;-67
2021/03/19 05:32:27;;;;;;;15.70;12.43;;;3.00;99.90;;;;;;5007334;28;20030;-66
2021/03/19 05:34:52;;;;;;;16.08;12.02;;;3.00;99.90;;;;;;5008917;28;20018;-66
2021/03/19 05:37:19;;;;;;;13.98;12.38;;;2.90;99.90;;;;;;5007920;28;20076;-66
2021/03/19 05:39:45;;;;;;;21.95;14.43;;;3.10;99.90;;;;;;5008155;28;20168;-66
2021/03/19 05:42:34;;;;;;;15.30;12.15;;;3.10;99.90;;;;;;5016235;28;20161;-67
2021/03/19 05:45:19;;;;;;;18.77;12.75;;;2.90;99.90;;;;;;5014016;28;20127;-66
2021/03/19 05:47:45;;;;;;;14.05;11.25;;;3.00;99.90;;;;;;5007671;28;20096;-68
2021/03/19 05:50:28;;;;;;;17.67;12.50;;;3.00;99.90;;;;;;5013215;28;20056;-66
2021/03/19 05:52:54;;;;;;;14.40;12.23;;;3.00;99.90;;;;;;5009353;28;20018;-66
2021/03/19 05:55:24;;;;;;;15.98;13.23;;;3.10;99.90;;;;;;5012985;28;20018;-66
2021/03/19 05:57:57;;;;;;;13.80;12.40;;;3.10;99.90;;;;;;5014809;28;20497;-67
2021/03/19 06:00:27;;;;;;;16.83;13.48;;;3.10;99.90;;;;;;5003929;28;20042;-68
2021/03/19 06:02:52;;;;;;;14.70;13.18;;;3.00;99.90;;;;;;5040568;28;20032;-67
2021/03/19 06:05:27;;;;;;;15.65;14.00;;;3.10;99.90;;;;;;5031032;28;20038;-67
2021/03/19 06:08:02;;;;;;;17.23;13.77;;;3.10;99.90;;;;;;5023381;28;20036;-67
2021/03/19 06:10:34;;;;;;;15.45;13.93;;;3.10;99.90;;;;;;5016077;28;20041;-67
2021/03/19 06:13:24;;;;;;;18.17;14.00;;;3.20;99.90;;;;;;5007726;28;20029;-67
2021/03/19 06:16:15;;;;;;;16.33;14.15;;;3.20;99.90;;;;;;5001587;28;20018;-67
2021/03/19 06:18:45;;;;;;;20.45;15.35;;;3.20;99.90;;;;;;4998266;28;20053;-67
2021/03/19 06:21:21;;;;;;;19.48;16.52;;;3.30;99.90;;;;;;5018058;28;20064;-67
2021/03/19 06:24:02;;;;;;;21.27;17.45;;;3.30;99.90;;;;;;5019942;28;20045;-67
2021/03/19 06:26:32;;;;;;;19.73;17.25;;;3.20;99.90;;;;;;5010090;28;20048;-67
2021/03/19 06:29:27;;;;;;;23.03;20.60;;;3.20;99.90;;;;;;5012900;28;20026;-67
2021/03/19 06:32:24;;;;;;;24.60;19.05;;;3.10;99.90;;;;;;5015176;28;20117;-67
2021/03/19 06:35:13;;;;;;;25.15;19.10;;;2.90;1.00;;;;;;5015127;28;20033;-67
2021/03/19 06:37:48;;;;;;;25.40;20.38;;;2.80;99.90;;;;;;5014642;28;20034;-68
2021/03/19 06:40:29;;;;;;;26.17;19.20;;;2.80;99.90;;;;;;5017881;28;20462;-66
2021/03/19 06:43:18;;;;;;;25.15;20.77;;;2.90;99.90;;;;;;5021570;28;20203;-68
2021/03/19 06:45:45;;;;;;;21.20;18.88;;;3.00;99.90;;;;;;5012335;28;20129;-68
2021/03/19 06:48:33;;;;;;;24.85;19.77;;;2.90;1.00;;;;;;5024921;28;20038;-66
2021/03/19 06:50:59;;;;;;;20.45;18.25;;;3.00;99.90;;;;;;5024846;28;20030;-68
2021/03/19 06:53:32;;;;;;;26.38;20.35;;;3.30;99.90;;;;;;5015907;28;20032;-68
2021/03/19 06:56:16;;;;;;;22.23;19.77;;;3.20;99.90;;;;;;5021654;28;20049;-67
2021/03/19 06:58:49;;;;;;;23.65;20.83;;;3.20;99.90;;;;;;5013146;28;20034;-68
2021/03/19 07:01:34;;;;;;;23.35;20.80;;;3.20;99.90;;;;;;5022571;28;20041;-67
2021/03/19 07:04:08;;;;;;;24.85;20.77;;;3.10;1.00;;;;;;5014414;28;20025;-67
2021/03/19 07:07:02;;;;;;;27.20;20.92;;;3.30;99.90;;;;;;5015869;28;20085;-68
2021/03/19 07:09:39;;;;;;;24.85;20.50;;;3.20;99.90;;;;;;5017920;28;20038;-67
2021/03/19 07:12:29;;;;;;;26.73;20.27;;;3.20;99.90;;;;;;5031771;28;20040;-68
2021/03/19 07:15:11;;;;;;;22.30;18.40;;;3.20;1.00;;;;;;5013866;28;20022;-67
2021/03/19 07:17:51;;;;;;;26.92;19.55;;;3.40;99.90;;;;;;5011167;28;20026;-68
2021/03/19 07:20:46;;;;;;;23.77;19.58;;;3.30;99.90;;;;;;5011304;28;20025;-67
2021/03/19 07:23:20;;;;;;;25.13;21.38;;;3.20;99.90;;;;;;5021107;28;20169;-68
2021/03/19 07:26:17;;;;;;;22.58;19.95;;;3.20;1.00;;;;;;5005266;28;20529;-68
2021/03/19 07:29:07;;;;;;;22.98;19.27;;;3.20;1.00;;;;;;5004946;28;20045;-68
2021/03/19 07:31:33;;;;;;;23.85;17.52;;;3.30;1.00;;;;;;5018601;28;20018;-67
2021/03/19 07:34:04;;;;;;;22.15;17.20;;;3.60;99.90;;;;;;5032726;28;20024;-68
2021/03/19 07:36:54;;;;;;;19.90;17.05;;;3.90;99.90;;;;;;5019665;28;20029;-68
2021/03/19 07:39:35;;;;;;;19.30;16.83;;;3.90;99.90;;;;;;5018575;28;20029;-67
2021/03/19 07:42:57;;;;;;;20.23;16.10;;;3.60;99.90;;;;;;5016211;28;20090;-67
2021/03/19 07:45:31;;;;;;;20.30;17.40;;;3.60;99.90;;;;;;4962010;28;20046;-69
2021/03/19 07:48:06;;;;;;;19.80;15.75;;;3.70;99.90;;;;;;4954308;29;20133;-68
2021/03/19 07:51:08;;;;;;;19.30;16.17;;;3.40;99.90;;;;;;4994383;28;20121;-66
2021/03/19 07:54:04;;;;;;;20.80;16.40;;;3.20;99.90;;;;;;5003322;28;20026;-69
2021/03/19 07:57:03;;;;;;;22.75;18.30;;;3.00;99.90;;;;;;5013427;28;20029;-68
2021/03/19 07:59:32;;;;;;;20.23;16.10;;;3.10;1.00;;;;;;5014498;28;20025;-69
2021/03/19 08:02:00;;;;;;;16.67;13.82;;;3.20;1.00;;;;;;5015051;28;20026;-67
2021/03/19 08:04:32;;;;;;;19.35;12.80;;;3.60;99.90;;;;;;5016784;28;20034;-68
2021/03/19 08:07:27;;;;;;;20.70;14.55;;;3.90;99.90;;;;;;5001326;28;20049;-68
2021/03/19 08:10:04;;;;;;;16.23;14.45;;;3.90;99.90;;;;;;4995273;28;20490;-69
2021/03/19 08:12:40;;;;;;;23.10;19.27;;;3.50;99.90;;;;;;5006313;28;20263;-68
2021/03/19 08:15:15;;;;;;;16.60;13.38;;;3.40;99.90;;;;;;5016776;28;20356;-68
2021/03/19 08:17:51;;;;;;;14.93;12.85;;;3.40;99.90;;;;;;5018911;28;20022;-69
2021/03/19 08:20:35;;;;;;;12.25;11.13;;;3.50;99.90;;;;;;5017312;28;20025;-70
2021/03/19 08:23:36;;;;;;;12.93;10.95;;;3.60;99.90;;;;;;5011354;28;20110;-69
2021/03/19 08:26:02;;;;;;;11.25;9.75;;;3.60;99.90;;;;;;5017114;28;20026;-69
2021/03/19 08:28:55;;;;;;;18.58;12.77;;;3.90;99.90;;;;;;5015367;28;20080;-68
2021/03/19 08:31:55;;;;;;;16.45;13.68;;;3.60;99.90;;;;;;5013687;28;20469;-68
2021/03/19 08:34:41;;;;;;;13.57;11.90;;;3.40;99.90;;;;;;5012309;28;20022;-68
2021/03/19 08:37:30;;;;;;;16.83;13.35;;;3.30;99.90;;;;;;5010222;28;20075;-69
2021/03/19 08:39:59;;;;;;;16.40;12.75;;;3.20;99.90;;;;;;5014577;28;20486;-69
2021/03/19 08:42:38;;;;;;;16.10;12.50;;;3.30;1.00;;;;;;5015151;28;20125;-68
2021/03/19 08:45:15;;;;;;;13.13;11.73;;;3.30;99.90;;;;;;5015400;28;20029;-68
2021/03/19 08:47:45;;;;;;;14.30;12.27;;;3.30;99.90;;;;;;5016245;28;20044;-68
2021/03/19 08:50:27;;;;;;;15.45;12.27;;;3.20;1.00;;;;;;5006296;28;20054;-69
2021/03/19 08:53:21;;;;;;;14.48;12.55;;;3.50;99.90;;;;;;5017352;28;20025;-69
2021/03/19 08:56:10;;;;;;;15.00;12.38;;;3.70;99.90;;;;;;5007861;28;20029;-67
2021/03/19 08:58:50;;;;;;;13.88;12.43;;;3.50;99.90;;;;;;5013615;28;20022;-69
2021/03/19 09:01:46;;;;;;;14.77;12.80;;;3.50;99.90;;;;;;5013890;28;20041;-67
2021/03/19 09:04:12;;;;;;;15.95;13.52;;;3.60;99.90;;;;;;5013557;28;20115;-67
2021/03/19 09:06:58;;;;;;;14.98;13.35;;;3.70;99.90;;;;;;5013176;28;20103;-68
2021/03/19 09:09:36;;;;;;;16.35;13.10;;;3.30;99.90;;;;;;5004321;28;20057;-68
2021/03/19 09:12:06;;;;;;;18.25;14.98;;;3.50;99.90;;;;;;5007087;28;20018;-68
2021/03/19 09:14:33;;;;;;;15.20;13.60;;;3.80;99.90;;;;;;5014240;28;20036;-68
2021/03/19 09:16:59;;;;;;;15.43;13.40;;;3.90;99.90;;;;;;5017453;28;20025;-69
2021/03/19 09:19:41;;;;;;;13.38;11.63;;;4.30;99.90;;;;;;5014275;28;20032;-69
2021/03/19 09:22:30;;;;;;;13.15;10.82;;;4.60;99.90;;;;;;5015440;28;20045;-69
2021/03/19 09:27:37;;;;;;;12.95;11.05;;;4.50;99.90;;;;;;5014495;28;20036;-68
2021/03/19 09:30:22;;;;;;;12.65;11.35;;;4.40;99.90;;;;;;5012472;28;20150;-69
2021/03/19 09:32:54;;;;;;;12.30;9.93;;;4.40;99.90;;;;;;5017700;28;20022;-70
2021/03/19 09:35:43;;;;;;;12.70;10.00;;;4.30;99.90;;;;;;5004483;28;20116;-69
2021/03/19 09:38:11;;;;;;;11.13;10.02;;;4.40;99.90;;;;;;5004039;28;20022;-68
2021/03/19 09:40:48;;;;;;;10.88;9.57;;;4.60;99.90;;;;;;4993630;28;20113;-71
2021/03/19 09:44:01;;;;;;;11.45;10.00;;;4.80;99.90;;;;;;5008645;28;20030;-69
2021/03/19 09:46:32;;;;;;;11.77;10.55;;;4.80;99.90;;;;;;4995691;28;20441;-69
2021/03/19 09:49:02;;;;;;;9.65;8.70;;;4.90;99.90;;;;;;5012674;28;20037;-69
2021/03/19 09:51:41;;;;;;;11.40;10.20;;;5.00;99.90;;;;;;5017807;28;20040;-69
2021/03/19 09:54:27;;;;;;;10.25;8.90;;;5.10;99.90;;;;;;5019137;28;20030;-69
2021/03/19 09:57:00;;;;;;;10.13;9.13;;;5.30;99.90;;;;;;5024250;28;20026;-69
2021/03/19 09:59:28;;;;;;;9.57;8.57;;;5.50;99.90;;;;;;5007275;28;20112;-69
2021/03/19 10:01:54;;;;;;;10.95;9.85;;;5.40;99.90;;;;;;5012836;28;20045;-67
2021/03/19 10:04:31;;;;;;;9.57;8.68;;;5.60;99.90;;;;;;5030263;28;20033;-68
2021/03/19 10:06:57;;;;;;;11.95;9.90;;;5.20;99.90;;;;;;5007889;28;20502;-68
2021/03/19 10:09:38;;;;;;;10.98;9.32;;;5.30;99.90;;;;;;5016892;28;20087;-68
2021/03/19 10:12:33;;;;;;;11.10;10.02;;;5.50;99.90;;;;;;5031906;28;20026;-67
2021/03/19 10:15:28;;;;;;;8.90;8.00;;;5.50;99.90;;;;;;5009034;28;20040;-69
2021/03/19 10:17:56;;;;;;;9.13;8.23;;;5.50;99.90;;;;;;5020357;28;20030;-68
2021/03/19 10:20:36;;;;;;;8.43;7.63;;;5.40;99.90;;;;;;5027100;28;20030;-69
2021/03/19 10:23:08;;;;;;;9.38;8.27;;;5.00;99.90;;;;;;5025078;28;20101;-68
2021/03/19 10:25:39;;;;;;;9.38;8.40;;;5.00;99.90;;;;;;5020081;28;20121;-68
2021/03/19 10:28:16;;;;;;;11.00;7.93;;;4.90;99.90;;;;;;5020619;28;20118;-67
2021/03/19 10:30:54;;;;;;;10.60;9.60;;;4.90;99.90;;;;;;5018596;28;20018;-68
2021/03/19 10:33:45;;;;;;;11.90;9.45;;;4.60;99.90;;;;;;5021617;28;20026;-69
2021/03/19 10:36:19;;;;;;;10.68;9.57;;;4.60;99.90;;;;;;5006977;28;20150;-67
2021/03/19 10:38:58;;;;;;;10.98;9.80;;;4.70;99.90;;;;;;5020626;28;20482;-68
2021/03/19 10:41:41;;;;;;;12.45;11.15;;;5.00;99.90;;;;;;5017521;28;20033;-69
2021/03/19 10:44:19;;;;;;;11.27;9.65;;;5.20;99.90;;;;;;5003475;28;20038;-67
2021/03/19 10:47:01;;;;;;;11.55;9.05;;;5.20;99.90;;;;;;5008221;28;20033;-67
2021/03/19 10:50:04;;;;;;;9.35;8.43;;;5.20;99.90;;;;;;5003259;28;20500;-68
2021/03/19 10:52:46;;;;;;;9.23;7.90;;;5.60;99.90;;;;;;5016835;28;20109;-68
2021/03/19 10:55:16;;;;;;;9.60;8.60;;;5.40;99.90;;;;;;5016817;28;20050;-70
2021/03/19 10:57:42;;;;;;;9.77;8.55;;;5.70;99.90;;;;;;5018804;28;20037;-69
2021/03/19 11:00:40;;;;;;;7.68;6.93;;;5.60;99.90;;;;;;5006767;28;20030;-67
2021/03/19 11:03:06;;;;;;;5.68;5.10;;;5.60;99.90;;;;;;5002711;28;20026;-68
2021/03/19 11:05:53;;;;;;;4.57;4.18;;;5.40;99.90;;;;;;5003984;28;20037;-69
2021/03/19 11:08:19;;;;;;;5.03;4.57;;;5.40;99.90;;;;;;5018084;28;20054;-68
2021/03/19 11:10:48;;;;;;;5.47;4.68;;;5.10;99.90;;;;;;5024802;28;20501;-68
2021/03/19 11:13:13;;;;;;;5.20;4.70;;;5.10;99.90;;;;;;5025514;28;20033;-68
2021/03/19 11:15:45;;;;;;;4.00;3.40;;;5.10;99.90;;;;;;5022437;28;20030;-69
2021/03/19 11:18:39;;;;;;;4.60;4.13;;;5.10;99.90;;;;;;5017627;28;20029;-69
2021/03/19 11:21:08;;;;;;;3.83;3.53;;;5.00;99.90;;;;;;5015671;28;20515;-69
2021/03/19 11:23:40;;;;;;;3.72;3.22;;;5.10;99.90;;;;;;5016216;28;20153;-69
2021/03/19 11:26:18;;;;;;;6.25;3.42;;;4.90;99.90;;;;;;5015011;28;20129;-69
2021/03/19 11:28:45;;;;;;;4.53;4.05;;;4.60;99.90;;;;;;5013106;28;20022;-72
2021/03/19 11:31:29;;;;;;;4.38;3.97;;;4.80;99.90;;;;;;5025496;28;20026;-69
2021/03/19 11:34:45;;;;;;;4.93;4.40;;;5.00;99.90;;;;;;5022906;28;20018;-68
2021/03/19 11:37:24;;;;;;;4.10;3.70;;;5.20;99.90;;;;;;5019990;28;20061;-70
2021/03/19 11:39:49;;;;;;;4.60;4.20;;;5.30;99.90;;;;;;5017417;28;20021;-69
2021/03/19 11:42:17;;;;;;;4.53;4.07;;;5.40;99.90;;;;;;5015252;28;20504;-68
2021/03/19 11:44:46;;;;;;;4.43;4.03;;;5.40;99.90;;;;;;5016345;28;20026;-69
2021/03/19 11:47:31;;;;;;;4.85;4.35;;;5.70;99.90;;;;;;5015910;28;20034;-69
2021/03/19 11:50:22;;;;;;;5.60;5.10;;;5.50;99.90;;;;;;5014509;28;20040;-68
2021/03/19 11:52:49;;;;;;;5.87;4.97;;;5.10;99.90;;;;;;5015658;28;20036;-69
2021/03/19 11:55:38;;;;;;;5.88;4.82;;;5.00;99.90;;;;;;4998183;28;20268;-69
2021/03/19 11:58:05;;;;;;;5.80;5.30;;;4.90;99.90;;;;;;5013834;28;20030;-69
2021/03/19 12:00:34;;;;;;;7.28;6.25;;;4.90;99.90;;;;;;5016069;28;20034;-69
2021/03/19 12:03:06;;;;;;;7.05;5.97;;;4.80;99.90;;;;;;5014722;28;20030;-69
2021/03/19 12:05:33;;;;;;;7.80;7.00;;;4.70;99.90;;;;;;5022549;28;20023;-69
2021/03/19 12:08:00;;;;;;;8.23;7.22;;;4.80;99.90;;;;;;4994070;28;20061;-67
2021/03/19 12:10:29;;;;;;;7.22;6.53;;;4.80;99.90;;;;;;4998753;28;20030;-69
2021/03/19 12:12:57;;;;;;;6.55;5.95;;;4.80;99.90;;;;;;5013226;28;20018;-70
2021/03/19 12:15:24;;;;;;;8.02;7.22;;;4.80;99.90;;;;;;5015083;28;20470;-70
2021/03/19 12:17:50;;;;;;;9.05;7.78;;;4.70;99.90;;;;;;5013347;28;20398;-68
2021/03/19 12:20:19;;;;;;;7.47;6.65;;;4.70;99.90;;;;;;5013757;28;20126;-68
2021/03/19 12:22:45;;;;;;;8.93;7.07;;;4.70;99.90;;;;;;5013879;28;20121;-70
2021/03/19 12:25:19;;;;;;;8.05;6.95;;;4.50;99.90;;;;;;5014124;28;20030;-69
2021/03/19 12:27:46;;;;;;;7.97;7.18;;;4.50;99.90;;;;;;5013518;28;20044;-68
2021/03/19 12:30:16;;;;;;;8.85;7.63;;;4.30;99.90;;;;;;5014893;28;20465;-69
2021/03/19 12:32:44;;;;;;;9.73;7.45;;;4.40;99.90;;;;;;5005345;28;20022;-70
2021/03/19 12:35:14;;;;;;;10.35;8.10;;;4.40;99.90;;;;;;5011167;28;20029;-69
2021/03/19 12:37:40;;;;;;;10.43;9.23;;;4.40;99.90;;;;;;5014005;28;20017;-70
2021/03/19 12:40:08;;;;;;;11.45;9.60;;;4.20;99.90;;;;;;5014406;28;20175;-69
2021/03/19 12:42:34;;;;;;;11.85;9.93;;;4.00;99.90;;;;;;5010491;28;20635;-69
2021/03/19 12:45:00;;;;;;;13.90;11.10;;;4.10;99.90;;;;;;5013428;28;20041;-69
2021/03/19 12:47:26;;;;;;;11.18;8.90;;;4.10;99.90;;;;;;5013260;28;20030;-69
2021/03/19 12:49:51;;;;;;;15.93;12.43;;;4.00;99.90;;;;;;5012413;28;20437;-70
2021/03/19 12:52:17;;;;;;;13.35;11.73;;;4.00;99.90;;;;;;5017527;28;20033;-69
2021/03/19 12:54:43;;;;;;;16.23;12.32;;;3.90;99.90;;;;;;5015526;28;20049;-69
2021/03/19 12:57:08;;;;;;;14.82;10.95;;;3.70;99.90;;;;;;5015113;28;20022;-69
2021/03/19 12:59:34;;;;;;;15.45;11.65;;;3.70;99.90;;;;;;5014678;28;20025;-69
2021/03/19 13:02:00;;;;;;;11.88;10.00;;;3.90;99.90;;;;;;5016093;28;20093;-71
2021/03/19 13:04:27;;;;;;;15.20;10.85;;;3.90;99.90;;;;;;5017479;28;20026;-71
2021/03/19 13:06:53;;;;;;;15.93;11.20;;;3.90;99.90;;;;;;5015014;28;20389;-70
2021/03/19 13:09:19;;;;;;;15.68;11.30;;;4.10;99.90;;;;;;5013870;28;20036;-69
2021/03/19 13:11:45;;;;;;;14.43;11.27;;;4.10;99.90;;;;;;5015996;28;20025;-69
2021/03/19 13:14:10;;;;;;;16.08;11.23;;;4.20;99.90;;;;;;5004060;28;20132;-73
2021/03/19 13:16:36;;;;;;;13.85;11.13;;;4.20;99.90;;;;;;5017511;28;20030;-69
2021/03/19 13:19:03;;;;;;;12.18;9.43;;;4.40;99.90;;;;;;5017289;28;20033;-68
2021/03/19 13:21:29;;;;;;;11.98;10.07;;;4.50;99.90;;;;;;5015352;28;20522;-67
2021/03/19 13:23:55;;;;;;;15.52;11.00;;;4.50;99.90;;;;;;5015982;28;20125;-68
2021/03/19 13:26:21;;;;;;;13.10;10.65;;;4.70;99.90;;;;;;5017349;28;20417;-68